• Join FlightAware (Why Join?)
  • Login
  • US Flag 
02:59AM EDT


 

Airport Tracker/Info


-or-


 

Live Flight TrackerFlight Track Log ✈ SKW5291 ✈ 08-May-2013 ✈ KGCC - KDEN

Flight Track Log - Related Links

Times and Time Zones

All times are in EDT time to prevent confusion due to time zone crossing. See the SKW5291 flight status page for this flight to view local times or setup timezone preferences in your user account.

Time Position Orientation Groundspeed Altitude Reporting Facility
EDT Latitude Longitude Course Direction KTS MPH feet Rate Location/Type
08:41AM 44.2894 -105.5553 184° South 241 277 8,900  Level Denver Center
08:42AM 44.2336 -105.5517 177° South 211 243 10,500 1,560 Climbing Denver Center
08:43AM 43.9602 -105.4592 184° South  Level Estimated
08:43AM 44.1786 -105.5517 180° South 207 238 12,100  Level Denver Center
08:44AM 43.8825 -105.4433 180° South  Level Estimated
08:44AM 44.1069 -105.5575 183° South 218 251 13,800  Level Denver Center
08:45AM 43.8047 -105.4275 180° South  Level Estimated
08:45AM 44.0456 -105.5617 183° South 228 262 15,500  Level Denver Center
08:46AM 43.7412 -105.4916 216° Southwest  Level FlightAware Approximate
08:46AM 43.9764 -105.5658 182° South 224 258 17,100  Level Denver Center
08:47AM 43.6637 -105.4742 184° South  Level Estimated
08:47AM 43.9189 -105.5675 181° South 218 251 18,100  Level Denver Center
08:48AM 43.8569 -105.5728 184° South 228 262 19,200 1,080 Climbing Denver Center
08:50AM 43.7858 -105.5761 182° South 229 264 20,400 1,080 Climbing Denver Center
08:51AM 43.7231 -105.5817 184° South 234 269 21,400 840 Climbing Denver Center
08:52AM 43.6619 -105.5733 174° South 234 269 22,200 780 Climbing Denver Center
08:53AM 43.5892 -105.5567 171° South 237 273 23,100 780 Climbing Denver Center
08:54AM 43.5267 -105.5456 173° South 238 274 23,900 780 Climbing Denver Center
08:55AM 43.4539 -105.5322 172° South 236 272 24,800 480 Climbing Denver Center
08:56AM 43.3908 -105.5231 174° South 237 273 25,000  Climbing Denver Center
08:57AM 43.3294 -105.5108 172° South 234 269 24,900 -60 Descending Denver Center
08:58AM 43.2561 -105.4978 173° South 237 273 24,900  Level Denver Center
08:59AM 43.1928 -105.4856 172° South 239 275 24,900  Level Denver Center
09:00AM 43.1403 -105.4764 173° South 239 275 24,900  Level Denver Center
09:01AM 43.0603 -105.4617 172° South 229 264 24,900  Level Denver Center
09:02AM 42.9997 -105.4492 171° South 229 264 24,900  Level Denver Center
09:03AM 42.9294 -105.4367 173° South 228 262 24,900  Level Denver Center
09:04AM 42.8683 -105.4264 173° South 230 265 24,900  Level Denver Center
09:05AM 42.8058 -105.4158 173° South 234 269 24,900  Level Denver Center
09:06AM 42.7344 -105.4047 173° South 232 267 24,900  Level Denver Center
09:07AM 42.6739 -105.3936 172° South 230 265 24,900  Level Denver Center
09:08AM 42.6156 -105.3839 173° South 223 257 24,900  Level Denver Center
09:09AM 42.5458 -105.3700 172° South 227 261 25,000  Climbing Denver Center
09:10AM 42.4869 -105.3594 172° South 224 258 25,000  Level Denver Center
09:11AM 42.4186 -105.3472 172° South 223 257 25,000  Level Denver Center
09:12AM 42.3619 -105.3375 173° South 217 250 25,000  Level Denver Center
09:13AM 42.3033 -105.3269 172° South 220 253 25,000  Level Denver Center
09:14AM 42.2344 -105.3142 172° South 222 255 25,000  Level Denver Center
09:15AM 42.1756 -105.3044 173° South 223 257 25,000 -60 Level Denver Center
09:16AM 42.1167 -105.2950 173° South 223 257 24,900  Descending Denver Center
09:17AM 42.0483 -105.2836 173° South 222 255 25,000  Climbing Denver Center
09:18AM 41.9900 -105.2722 172° South 221 254 25,000 -60 Level Denver Center
09:19AM 41.9208 -105.2617 174° South 223 257 24,900 -420 Descending Denver Center
09:20AM 41.8608 -105.2517 173° South 227 261 24,200 -780 Descending Denver Center
09:21AM 41.8019 -105.2403 172° South 224 258 23,400 -900 Descending Denver Center
09:22AM 41.7369 -105.2297 173° South 214 246 22,400 -900 Descending Denver Center
09:23AM 41.6814 -105.2203 173° South 210 242 21,600 -840 Descending Denver Center
09:24AM 41.6256 -105.2086 171° South 212 244 20,700 -1,020 Descending Denver Center
09:25AM 41.5606 -105.1997 174° South 210 242 19,600 -1,020 Descending Denver Center
09:26AM 41.5036 -105.1914 174° South 213 245 18,700 -960 Descending Denver Center
09:27AM 41.4364 -105.1789 172° South 217 250 17,700 -960 Descending Denver Center
09:28AM 41.3808 -105.1703 173° South 213 245 16,800 -900 Descending Denver Center
09:29AM 41.3231 -105.1611 173° South 216 249 15,900 -900 Descending Denver Center
09:30AM 41.2561 -105.1475 171° South 218 251 14,800 -1,020 Descending Denver Center
09:31AM 41.1908 -105.1375 173° South 213 245 13,700 -900 Descending Denver Center
09:32AM 41.1258 -105.1272 173° South 211 243 13,000 -360 Descending Denver Center
09:33AM 41.0706 -105.1183 173° South 210 242 13,000  Level Denver Center
09:34AM 41.0153 -105.1083 172° South 209 241 13,000  Level Denver Center
09:35AM 40.9542 -105.0953 171° South 205 236 13,000  Level Denver Center
09:37AM 40.8969 -105.0869 174° South 206 237 13,000  Level Denver Center
09:38AM 40.8531 -105.0364 139° Southeast 211 243 13,000  Level Denver Center
09:39AM 40.8047 -104.9736 135° Southeast 237 273 13,000  Level Denver Center
09:40AM 40.7553 -104.9136 137° Southeast 241 277 13,000  Level Denver Center
09:41AM 40.6825 -104.8850 163° South 249 287 13,000 -240 Level Denver Center
09:42AM 40.6153 -104.8600 164° South 251 289 12,600 -840 Descending Denver Center
09:43AM 40.5481 -104.8325 163° South 252 290 11,300 -840 Descending Denver Center
09:44AM 40.4794 -104.8083 165° South 253 291 11,000 -180 Descending Denver Center
09:45AM 40.4075 -104.7806 164° South 251 289 11,000  Level Denver Center
09:46AM 40.3397 -104.7539 163° South 255 293 11,000  Level Denver Center
09:47AM 40.2725 -104.7267 163° South 254 292 11,000 -300 Level Denver Center
09:48AM 40.2058 -104.6983 162° South 252 290 10,400 -780 Descending Denver Center
09:49AM 40.1386 -104.6844 171° South 245 282 9,500 -1,020 Descending Denver Center
09:50AM 40.0694 -104.6875 182° South 230 265 8,400 -1,140 Descending Denver Center